メインページ
METAR-TAF:

METAR-TAF

空港 :

ホバート国際空港

ホバート, オーストラリア

緯度: 42-50S, 経度: 147-29E, 海抜: 4m

現時点の気象観測

当レポートは32分前の16:35(UTC)に作成
南/南西の風 7kt
気温 13°C
湿度 94%
気圧 1015 hPa
視程: 6000m
高度800ftの雲はほとんどない
高度2000ftの千切れ雲あり
高度2700ftの千切れ雲あり
霧雨

METAR: YMHB 171635Z 21007KT 6000 DZ FEW008 BKN020 BKN027 13/12 Q1015

時間: 04:07 (17:07 UTC)

予報

当レポートは5時間36分前の11:31(UTC)に作成
予報は17日の 11時(UTC)から 18日の 12時(UTC)まで有効
南/南西の風 10kt
視程: 5000m
高度800ftの雲は散在している
高度1200ftの千切れ雲あり
弱いにわか雨
17日の 1400時(UTC)から
の風 10kt
視程10km以上
高度1000ftの雲は散在している
高度2000ftの千切れ雲あり
弱いにわか雨
17日の 2300時(UTC)から
の風 12kt
視程10km以上
高度2500ftの千切れ雲あり
18日の 0200時(UTC)から
南東の風 12kt
視程10km以上
高度3000ftの雲は散在している
18日の 0700時(UTC)から
の風 7kt
視程10km以上
高度3000ftの千切れ雲あり
17日の 11時(UTC)から 17日の 23時(UTC)まで一時的に
視程: 4000m
高度800ftの千切れ雲あり
にわか雨

TAF: YMHB 171131Z 1711/1812 20010KT 5000 -SHRA SCT008 BKN012 FM171400 18010KT 9999 -SHRA SCT010 BKN020 FM172300 17012KT 9999 BKN025 FM180200 14012KT 9999 SCT030 FM180700 08007KT 9999 BKN030 TEMPO 1711/1723 4000 SHRA BKN008

4,000以上の空港の気象観測と天気予報(METAR報とTAF報)

利用可能な観測所は地図上に黄色い丸と赤い丸で示す。

丸の上にカーソルを重ねると観測所名を参照できる。

次にクリックすると気象観測と天気予報を参照できる。

マップの切り替え:黒色「×」印の緑ボタンをクリックして拡大、「-」印の緑ボタンをクリックして縮小、緑色の三角印をクリックして隣りの地図に切り替え


METAR-TAF: